createdAt,value
2022-12-08T00:01:27.780Z,7.23
2022-12-08T00:03:58.889Z,6.87
2022-12-08T00:06:45.905Z,8.10
2022-12-08T00:09:25.094Z,6.70
2022-12-08T00:11:55.755Z,7.50
2022-12-08T00:14:29.005Z,6.97
2022-12-08T00:16:57.256Z,6.90
2022-12-08T00:19:25.555Z,7.10
2022-12-08T00:21:53.811Z,7.63
2022-12-08T00:24:23.687Z,6.10
2022-12-08T00:26:51.656Z,6.87
2022-12-08T00:29:19.701Z,6.43
2022-12-08T00:31:48.094Z,7.00
2022-12-08T00:34:16.514Z,7.17
2022-12-08T00:36:45.072Z,6.40
2022-12-08T00:39:14.337Z,6.73
2022-12-08T00:42:00.955Z,7.03
2022-12-08T00:44:28.701Z,7.03
2022-12-08T00:46:56.400Z,7.77
2022-12-08T00:49:24.310Z,7.10
2022-12-08T00:51:51.942Z,8.10
2022-12-08T00:54:20.729Z,6.20
2022-12-08T00:56:50.138Z,6.87
2022-12-08T00:59:18.368Z,6.10
2022-12-08T01:01:47.135Z,6.93
2022-12-08T01:04:16.818Z,6.87
2022-12-08T01:06:45.324Z,7.00
2022-12-08T01:09:14.806Z,6.03
2022-12-08T01:11:42.635Z,7.70
2022-12-08T01:14:11.915Z,6.00
2022-12-08T01:16:41.351Z,6.00
2022-12-08T01:19:11.226Z,5.30
2022-12-08T01:21:38.865Z,4.43
2022-12-08T01:24:07.499Z,6.20
2022-12-08T01:26:35.116Z,6.03
2022-12-08T01:29:02.818Z,7.07
2022-12-08T01:31:31.772Z,6.93
2022-12-08T01:33:59.492Z,5.83
2022-12-08T01:36:28.690Z,6.43
2022-12-08T01:38:59.247Z,7.00
2022-12-08T01:41:29.653Z,7.80
2022-12-08T01:44:00.435Z,6.43
2022-12-08T01:46:29.493Z,6.57
2022-12-08T01:49:04.027Z,7.23
2022-12-08T01:51:35.487Z,6.47
2022-12-08T01:54:04.875Z,6.20
2022-12-08T01:56:38.407Z,6.30
2022-12-08T01:59:07.372Z,7.30
2022-12-08T02:01:35.220Z,7.30
2022-12-08T02:04:05.282Z,7.17
2022-12-08T02:06:37.776Z,6.40
2022-12-08T02:09:06.647Z,6.63
2022-12-08T02:11:34.242Z,8.40
2022-12-08T02:14:07.234Z,7.90
2022-12-08T02:16:42.122Z,7.67
2022-12-08T02:19:31.891Z,6.73
2022-12-08T02:22:04.206Z,7.60
2022-12-08T02:24:38.422Z,7.20
2022-12-08T02:27:38.083Z,6.63
2022-12-08T02:30:20.945Z,8.83
2022-12-08T02:33:22.152Z,6.60
2022-12-08T02:35:57.946Z,6.50
2022-12-08T02:38:38.032Z,7.37
2022-12-08T02:41:15.826Z,8.13
2022-12-08T02:43:46.220Z,7.60
2022-12-08T02:46:17.968Z,6.70
2022-12-08T02:48:46.118Z,7.83
2022-12-08T02:51:15.074Z,6.53
2022-12-08T02:53:43.072Z,6.20
2022-12-08T02:56:23.905Z,6.87
2022-12-08T02:59:04.810Z,5.40
2022-12-08T03:01:51.225Z,7.37
2022-12-08T03:04:27.816Z,6.40
2022-12-08T03:07:05.409Z,6.47
2022-12-08T03:09:39.592Z,7.73
2022-12-08T03:12:17.618Z,6.43
2022-12-08T03:14:47.959Z,6.57
2022-12-08T03:17:19.271Z,7.63
2022-12-08T03:19:49.542Z,6.10
2022-12-08T03:22:22.167Z,7.40
2022-12-08T03:24:50.535Z,6.70
2022-12-08T03:27:20.795Z,6.27
2022-12-08T03:29:50.192Z,6.50
2022-12-08T03:32:24.598Z,6.23
2022-12-08T03:34:52.998Z,6.33
2022-12-08T03:37:22.482Z,6.23
2022-12-08T03:39:50.066Z,6.93
2022-12-08T03:42:17.630Z,5.83
2022-12-08T03:44:45.718Z,6.80
2022-12-08T03:47:13.324Z,6.60
2022-12-08T03:49:40.908Z,5.60
2022-12-08T03:52:08.455Z,5.70
2022-12-08T03:54:37.351Z,7.00
2022-12-08T03:57:05.125Z,6.40
2022-12-08T03:59:32.756Z,6.50
2022-12-08T04:02:00.469Z,7.13
2022-12-08T04:04:28.100Z,6.63
2022-12-08T04:06:55.700Z,5.87
2022-12-08T04:09:23.662Z,5.43
2022-12-08T04:11:52.584Z,5.97
2022-12-08T04:14:20.274Z,6.33
2022-12-08T04:16:47.826Z,5.93
2022-12-08T04:19:15.506Z,7.60
2022-12-08T04:21:43.135Z,6.30
2022-12-08T04:24:10.933Z,6.37
2022-12-08T04:26:38.604Z,7.87
2022-12-08T04:29:07.589Z,6.83
2022-12-08T04:31:35.175Z,6.17
2022-12-08T04:34:03.407Z,6.70
2022-12-08T04:36:31.023Z,7.33
2022-12-08T04:38:59.033Z,5.60
2022-12-08T04:41:26.613Z,6.27
2022-12-08T04:43:54.299Z,6.30
2022-12-08T04:46:23.266Z,7.20
2022-12-08T04:48:50.869Z,6.90
2022-12-08T04:51:20.282Z,8.67
2022-12-08T04:53:48.509Z,6.47
2022-12-08T04:56:17.882Z,5.17
2022-12-08T04:58:45.516Z,6.23
2022-12-08T05:01:13.765Z,7.23
2022-12-08T05:03:43.068Z,6.63
2022-12-08T05:06:11.557Z,7.30
2022-12-08T05:08:39.188Z,5.93
2022-12-08T05:11:08.487Z,6.07
2022-12-08T05:13:36.303Z,6.50
2022-12-08T05:16:05.366Z,7.30
2022-12-08T05:18:33.040Z,6.77
2022-12-08T05:21:02.056Z,6.80
2022-12-08T05:23:29.858Z,6.27
2022-12-08T05:25:58.072Z,6.67
2022-12-08T05:28:41.176Z,7.07
2022-12-08T05:31:10.585Z,6.50
2022-12-08T05:33:38.282Z,5.83
2022-12-08T05:36:08.134Z,7.10
2022-12-08T05:38:35.787Z,5.80
2022-12-08T05:41:03.402Z,6.73
2022-12-08T05:43:30.957Z,6.07
2022-12-08T05:45:58.566Z,8.30
2022-12-08T05:48:26.728Z,9.90
2022-12-08T05:50:54.568Z,7.00
2022-12-08T05:53:23.543Z,5.60
2022-12-08T05:55:51.274Z,5.47
2022-12-08T05:58:21.650Z,6.23
2022-12-08T06:00:50.223Z,5.20
2022-12-08T06:03:19.964Z,5.13
2022-12-08T06:05:48.639Z,6.53
2022-12-08T06:08:17.655Z,6.70
2022-12-08T06:10:47.455Z,7.70
2022-12-08T06:13:15.734Z,5.80
2022-12-08T06:15:43.776Z,7.10
2022-12-08T06:18:12.491Z,7.30
2022-12-08T06:20:40.103Z,5.20
2022-12-08T06:23:07.695Z,5.47
2022-12-08T06:25:35.320Z,6.07
2022-12-08T06:28:05.943Z,5.90
2022-12-08T06:30:33.593Z,5.93
2022-12-08T06:33:01.258Z,6.70
2022-12-08T06:35:28.823Z,5.43
2022-12-08T06:37:56.456Z,7.03
2022-12-08T06:40:24.068Z,5.97
2022-12-08T06:42:51.715Z,5.63
2022-12-08T06:45:21.020Z,6.00
2022-12-08T06:47:48.938Z,6.17
2022-12-08T06:50:16.999Z,5.50
2022-12-08T06:52:57.016Z,6.10
2022-12-08T06:58:19.682Z,6.00
2022-12-08T07:00:48.790Z,6.30
2022-12-08T07:03:16.469Z,6.67
2022-12-08T07:05:44.054Z,5.57
2022-12-08T07:08:11.672Z,5.20
2022-12-08T07:10:39.505Z,5.70
2022-12-08T07:13:07.204Z,6.00
2022-12-08T07:15:34.747Z,6.20
2022-12-08T07:18:03.639Z,6.07
2022-12-08T07:20:31.518Z,5.03
2022-12-08T07:22:59.143Z,6.33
2022-12-08T07:25:26.797Z,5.17
2022-12-08T07:27:54.511Z,5.27
2022-12-08T07:30:22.155Z,5.53
2022-12-08T07:32:49.814Z,5.93
2022-12-08T07:35:18.892Z,5.10
2022-12-08T07:37:46.409Z,5.80
2022-12-08T07:40:14.820Z,6.30
2022-12-08T07:42:42.378Z,5.93
2022-12-08T07:45:10.720Z,6.63
2022-12-08T07:47:38.253Z,5.43
2022-12-08T07:50:07.321Z,5.87
2022-12-08T07:52:36.650Z,5.63
2022-12-08T07:55:04.728Z,5.60
2022-12-08T07:57:32.271Z,6.23
2022-12-08T07:59:59.833Z,5.87
2022-12-08T08:02:27.500Z,6.10
2022-12-08T08:04:55.202Z,5.40
2022-12-08T08:07:22.859Z,5.60
2022-12-08T08:09:51.844Z,6.27
2022-12-08T08:12:34.699Z,5.70
2022-12-08T08:15:02.958Z,7.80
2022-12-08T08:17:31.159Z,8.20
2022-12-08T08:19:58.909Z,7.27
2022-12-08T08:22:27.413Z,7.57
2022-12-08T08:24:56.339Z,7.50
2022-12-08T08:27:24.979Z,7.10
2022-12-08T08:29:52.779Z,7.27
2022-12-08T08:32:20.974Z,6.83
2022-12-08T08:34:48.596Z,8.03
2022-12-08T08:37:16.263Z,7.33
2022-12-08T08:39:43.976Z,8.20
2022-12-08T08:42:12.883Z,7.70
2022-12-08T08:44:40.463Z,9.40
2022-12-08T08:47:08.675Z,8.50
2022-12-08T08:49:36.317Z,9.50
2022-12-08T08:52:05.689Z,7.23
2022-12-08T08:54:33.722Z,11.40
2022-12-08T08:57:02.023Z,8.53
2022-12-08T08:59:31.084Z,8.63
2022-12-08T09:01:58.834Z,8.97
2022-12-08T09:04:26.609Z,7.10
2022-12-08T09:06:54.227Z,7.60
2022-12-08T09:09:21.827Z,6.20
2022-12-08T09:11:49.540Z,6.50
2022-12-08T09:14:17.142Z,6.97
2022-12-08T09:16:46.098Z,7.37
2022-12-08T09:19:13.815Z,7.90
2022-12-08T09:21:41.517Z,6.50
2022-12-08T09:24:15.319Z,7.30
2022-12-08T09:26:43.540Z,7.20
2022-12-08T09:29:11.747Z,7.27
2022-12-08T09:31:39.934Z,8.03
2022-12-08T09:34:09.136Z,9.30
2022-12-08T09:36:36.845Z,8.60
2022-12-08T09:39:04.801Z,7.00
2022-12-08T09:41:40.366Z,7.40
2022-12-08T09:44:34.952Z,8.00
2022-12-08T09:47:06.217Z,6.27
2022-12-08T09:49:40.764Z,8.40
2022-12-08T09:52:21.103Z,6.93
2022-12-08T09:54:48.732Z,7.40
2022-12-08T09:57:20.296Z,7.63
2022-12-08T09:59:53.605Z,6.70
2022-12-08T10:02:24.667Z,8.37
2022-12-08T10:04:56.180Z,7.10
2022-12-08T10:07:32.099Z,6.83
2022-12-08T10:10:05.555Z,7.60
2022-12-08T10:12:41.726Z,5.30
2022-12-08T10:15:27.580Z,6.20
2022-12-08T10:17:58.455Z,6.63
2022-12-08T10:20:36.530Z,6.60
2022-12-08T10:23:09.953Z,4.90
2022-12-08T10:25:42.205Z,5.80
2022-12-08T10:28:10.255Z,5.93
2022-12-08T10:30:38.365Z,6.47
2022-12-08T10:33:06.016Z,4.60
2022-12-08T10:35:47.174Z,4.93
2022-12-08T10:38:20.026Z,6.80
2022-12-08T10:40:48.590Z,6.07
2022-12-08T10:43:20.043Z,5.10
2022-12-08T10:45:47.640Z,5.40
2022-12-08T10:48:18.382Z,4.93
2022-12-08T10:50:53.951Z,5.40
2022-12-08T10:53:23.767Z,4.80
2022-12-08T10:55:53.839Z,4.50
2022-12-08T10:58:30.523Z,4.80
2022-12-08T11:01:02.660Z,5.33
2022-12-08T11:03:32.405Z,4.10
2022-12-08T11:06:08.904Z,5.50
2022-12-08T11:08:48.869Z,5.80
2022-12-08T11:11:17.104Z,5.03
2022-12-08T11:13:44.934Z,4.53
2022-12-08T11:16:15.549Z,5.63
2022-12-08T11:18:45.008Z,4.77
2022-12-08T11:21:15.901Z,5.17
2022-12-08T11:23:47.458Z,4.93
2022-12-08T11:26:22.742Z,4.43
2022-12-08T11:28:50.333Z,4.93
2022-12-08T11:31:28.260Z,5.07
2022-12-08T11:33:56.827Z,3.40
2022-12-08T11:36:30.296Z,4.60
2022-12-08T11:39:00.452Z,3.30
2022-12-08T11:41:32.293Z,5.17
2022-12-08T11:44:05.784Z,4.30
2022-12-08T11:46:38.005Z,4.47
2022-12-08T11:49:10.676Z,4.63
2022-12-08T11:51:45.103Z,3.93
2022-12-08T11:54:21.235Z,4.40
2022-12-08T11:56:52.355Z,3.90
2022-12-08T11:59:27.687Z,3.63
2022-12-08T12:01:55.798Z,3.80
2022-12-08T12:04:30.648Z,3.30
2022-12-08T12:07:41.074Z,3.70
2022-12-08T12:10:26.527Z,3.43
2022-12-08T12:13:05.908Z,3.87
2022-12-08T12:15:50.645Z,3.40
2022-12-08T12:18:26.938Z,3.80
2022-12-08T12:20:59.470Z,3.40
2022-12-08T12:23:37.377Z,4.13
2022-12-08T12:26:08.068Z,5.07
2022-12-08T12:28:42.856Z,3.97
2022-12-08T12:31:15.855Z,4.10
2022-12-08T12:33:44.630Z,3.73
2022-12-08T12:36:14.688Z,3.63
2022-12-08T12:39:06.093Z,3.80
2022-12-08T12:41:43.163Z,3.60
2022-12-08T12:44:38.060Z,3.73
2022-12-08T12:47:08.433Z,4.23
2022-12-08T12:49:53.270Z,3.50
2022-12-08T12:52:44.055Z,4.10
2022-12-08T12:55:42.442Z,3.80
2022-12-08T12:58:23.109Z,3.93
2022-12-08T13:00:50.996Z,4.67
2022-12-08T13:03:19.100Z,4.13
2022-12-08T13:05:52.103Z,3.77
2022-12-08T13:08:23.990Z,3.07
2022-12-08T13:11:01.725Z,3.17
2022-12-08T13:13:29.931Z,3.50
2022-12-08T13:16:12.673Z,2.97
2022-12-08T13:18:49.688Z,4.07
2022-12-08T13:21:23.697Z,3.30
2022-12-08T13:24:12.694Z,3.30
2022-12-08T13:26:46.323Z,3.37
2022-12-08T13:29:20.193Z,5.13
2022-12-08T13:31:51.273Z,3.10
2022-12-08T13:34:28.720Z,3.30
2022-12-08T13:37:03.510Z,3.50
2022-12-08T13:39:41.937Z,5.37
2022-12-08T13:42:20.679Z,6.73
2022-12-08T13:48:14.040Z,5.00
2022-12-08T13:51:23.636Z,4.70
2022-12-08T13:59:27.993Z,3.70
2022-12-08T14:01:58.132Z,4.53
2022-12-08T14:05:01.288Z,4.70
2022-12-08T14:07:15.097Z,5.20
2022-12-08T14:09:43.630Z,4.40
2022-12-08T14:12:19.974Z,3.90
2022-12-08T14:15:03.181Z,3.37
2022-12-08T14:17:31.738Z,3.50
2022-12-08T14:20:01.250Z,4.77
2022-12-08T14:22:34.305Z,4.17
2022-12-08T14:25:02.094Z,4.13
2022-12-08T14:27:34.916Z,3.90
2022-12-08T14:30:08.052Z,3.87
2022-12-08T14:32:39.381Z,5.00
2022-12-08T14:35:19.774Z,4.23
2022-12-08T14:37:49.113Z,4.27
2022-12-08T14:40:23.733Z,3.43
2022-12-08T14:42:53.355Z,3.40
2022-12-08T14:45:22.802Z,3.83
2022-12-08T14:47:51.124Z,2.90
2022-12-08T14:50:39.699Z,2.60
2022-12-08T14:53:15.012Z,3.50
2022-12-08T14:55:45.312Z,3.70
2022-12-08T14:58:19.347Z,3.33
2022-12-08T15:00:51.484Z,3.53
2022-12-08T15:03:22.512Z,3.07
2022-12-08T15:05:52.976Z,3.87
2022-12-08T15:08:20.694Z,5.20
2022-12-08T15:11:08.438Z,3.17
2022-12-08T15:13:36.101Z,3.50
2022-12-08T15:16:33.444Z,5.77
2022-12-08T15:19:18.872Z,3.87
2022-12-08T15:21:47.400Z,5.20
2022-12-08T15:24:16.646Z,5.23
2022-12-08T15:26:46.998Z,5.53
2022-12-08T15:29:20.497Z,4.83
2022-12-08T15:31:48.187Z,4.50
2022-12-08T15:34:17.311Z,4.10
2022-12-08T15:36:45.651Z,4.33
2022-12-08T15:39:26.640Z,4.43
2022-12-08T15:41:54.214Z,4.50
2022-12-08T15:44:22.818Z,5.33
2022-12-08T15:46:50.831Z,4.67
2022-12-08T15:49:22.905Z,4.73
2022-12-08T15:51:53.568Z,5.37
2022-12-08T15:54:24.140Z,5.07
2022-12-08T15:57:22.203Z,5.50
2022-12-08T15:59:42.944Z,5.13
2022-12-08T16:02:15.559Z,4.33
2022-12-08T16:05:25.613Z,4.00
2022-12-08T16:07:38.179Z,4.33
2022-12-08T16:10:08.280Z,4.20
2022-12-08T16:15:59.030Z,5.20
2022-12-08T16:18:30.393Z,5.57
2022-12-08T16:23:47.062Z,5.00
2022-12-08T16:26:28.539Z,4.80
2022-12-08T16:29:04.199Z,5.57
2022-12-08T16:31:32.221Z,4.93
2022-12-08T16:33:59.871Z,4.80
2022-12-08T16:36:28.957Z,4.90
2022-12-08T16:38:56.471Z,4.67
2022-12-08T16:41:41.755Z,4.40
2022-12-08T16:44:09.544Z,4.63
2022-12-08T16:46:37.243Z,4.80
2022-12-08T16:49:09.011Z,4.67
2022-12-08T16:51:37.982Z,5.60
2022-12-08T16:54:05.672Z,5.03
2022-12-08T16:56:33.884Z,4.90
2022-12-08T16:59:02.137Z,4.97
2022-12-08T17:01:29.999Z,5.07
2022-12-08T17:06:46.714Z,4.47
2022-12-08T17:09:14.519Z,3.90
2022-12-08T17:11:43.575Z,4.20
2022-12-08T17:14:12.373Z,5.57
2022-12-08T17:16:40.390Z,6.50
2022-12-08T17:19:08.085Z,4.83
2022-12-08T17:21:35.824Z,5.23
2022-12-08T17:24:05.069Z,5.30
2022-12-08T17:26:32.699Z,5.50
2022-12-08T17:29:03.273Z,6.73
2022-12-08T17:31:32.223Z,6.50
2022-12-08T17:34:00.661Z,6.80
2022-12-08T17:36:28.296Z,7.40
2022-12-08T17:38:56.133Z,7.47
2022-12-08T17:41:25.083Z,6.20
2022-12-08T17:43:52.742Z,6.20
2022-12-08T17:46:21.663Z,5.93
2022-12-08T17:48:49.637Z,6.37
2022-12-08T17:51:17.591Z,6.87
2022-12-08T17:53:45.327Z,6.10
2022-12-08T17:56:17.602Z,6.43
2022-12-08T17:58:52.642Z,6.40
2022-12-08T18:01:23.498Z,7.27
2022-12-08T18:03:51.606Z,7.50
2022-12-08T18:06:19.515Z,8.43
2022-12-08T18:08:47.454Z,7.27
2022-12-08T18:11:17.411Z,7.10
2022-12-08T18:13:47.084Z,6.20
2022-12-08T18:16:15.436Z,6.80
2022-12-08T18:18:43.552Z,7.13
2022-12-08T18:21:11.507Z,7.33
2022-12-08T18:23:40.181Z,6.00
2022-12-08T18:26:09.622Z,5.30
2022-12-08T18:28:37.982Z,5.07
2022-12-08T18:31:10.809Z,6.40
2022-12-08T18:33:40.733Z,5.83
2022-12-08T18:36:10.336Z,5.80
2022-12-08T18:38:38.209Z,8.80
2022-12-08T18:41:07.197Z,6.37
2022-12-08T18:43:34.934Z,6.57
2022-12-08T18:46:03.478Z,7.03
2022-12-08T18:48:32.717Z,7.43
2022-12-08T18:51:00.410Z,8.30
2022-12-08T18:53:28.282Z,6.40
2022-12-08T18:55:55.880Z,7.77
2022-12-08T18:58:23.917Z,8.27
2022-12-08T19:00:51.613Z,7.07
2022-12-08T19:03:20.957Z,7.47
2022-12-08T19:05:49.957Z,7.60
2022-12-08T19:08:18.078Z,7.60
2022-12-08T19:10:45.694Z,6.10
2022-12-08T19:13:13.421Z,7.00
2022-12-08T19:15:40.974Z,6.63
2022-12-08T19:18:08.640Z,9.10
2022-12-08T19:20:36.290Z,8.27
2022-12-08T19:23:05.189Z,7.37
2022-12-08T19:25:32.791Z,5.90
2022-12-08T19:28:00.507Z,7.57
2022-12-08T19:30:28.243Z,8.33
2022-12-08T19:32:55.956Z,7.97
2022-12-08T19:35:23.578Z,10.00
2022-12-08T19:37:51.704Z,7.17
2022-12-08T19:40:39.426Z,8.70
2022-12-08T19:43:24.645Z,8.43
2022-12-08T19:45:52.750Z,7.07
2022-12-08T19:48:20.380Z,7.60
2022-12-08T19:50:48.037Z,7.87
2022-12-08T19:53:16.984Z,7.77
2022-12-08T19:55:46.013Z,6.87
2022-12-08T19:58:13.619Z,6.20
2022-12-08T20:00:42.090Z,6.90
2022-12-08T20:03:11.352Z,6.93
2022-12-08T20:05:41.810Z,6.63
2022-12-08T20:08:09.679Z,7.13
2022-12-08T20:10:39.229Z,7.10
2022-12-08T20:13:29.570Z,7.50
2022-12-08T20:15:57.768Z,7.80
2022-12-08T20:18:25.481Z,6.80
2022-12-08T20:20:53.680Z,7.40
2022-12-08T20:23:21.364Z,6.00
2022-12-08T20:25:49.179Z,8.07
2022-12-08T20:28:19.829Z,7.10
2022-12-08T20:30:49.034Z,8.00
2022-12-08T20:33:19.410Z,6.27
2022-12-08T20:35:47.378Z,7.80
2022-12-08T20:38:16.233Z,7.17
2022-12-08T20:40:46.277Z,6.83
2022-12-08T20:43:14.309Z,6.47
2022-12-08T20:45:43.466Z,7.77
2022-12-08T20:48:11.333Z,8.93
2022-12-08T20:50:39.227Z,6.50
2022-12-08T20:53:07.377Z,7.47
2022-12-08T20:55:35.504Z,7.50
2022-12-08T20:58:03.227Z,7.23
2022-12-08T21:00:31.302Z,8.87
2022-12-08T21:03:00.883Z,8.77
2022-12-08T21:05:29.044Z,8.70
2022-12-08T21:07:56.998Z,7.20
2022-12-08T21:10:24.653Z,6.10
2022-12-08T21:12:52.283Z,7.80
2022-12-08T21:15:20.198Z,6.23
2022-12-08T21:17:48.059Z,7.13
2022-12-08T21:20:17.203Z,5.90
2022-12-08T21:22:45.032Z,7.10
2022-12-08T21:25:12.688Z,7.13
2022-12-08T21:27:40.946Z,7.10
2022-12-08T21:30:10.828Z,5.70
2022-12-08T21:32:39.772Z,7.77
2022-12-08T21:35:08.757Z,6.50
2022-12-08T21:37:38.045Z,7.50
2022-12-08T21:40:07.340Z,6.10
2022-12-08T21:42:44.621Z,5.80
2022-12-08T21:45:14.822Z,5.63
2022-12-08T21:47:42.795Z,6.47
2022-12-08T21:50:14.701Z,7.20
2022-12-08T21:52:45.749Z,5.97
2022-12-08T21:55:14.818Z,6.77
2022-12-08T21:57:42.805Z,6.17
2022-12-08T22:00:15.041Z,5.03
2022-12-08T22:02:43.073Z,6.10
2022-12-08T22:05:11.575Z,6.23
2022-12-08T22:07:40.807Z,6.50
2022-12-08T22:10:11.484Z,9.03
2022-12-08T22:12:40.269Z,6.57
2022-12-08T22:15:09.772Z,8.20
2022-12-08T22:17:38.656Z,8.37
2022-12-08T22:20:10.346Z,7.10
2022-12-08T22:22:38.898Z,7.30
2022-12-08T22:25:10.979Z,6.57
2022-12-08T22:27:41.029Z,7.70
2022-12-08T22:30:11.038Z,7.73
2022-12-08T22:32:39.975Z,7.23
2022-12-08T22:35:08.393Z,8.57
2022-12-08T22:37:36.320Z,8.70
2022-12-08T22:40:04.874Z,7.37
2022-12-08T22:42:33.073Z,8.30
2022-12-08T22:45:02.296Z,7.23
2022-12-08T22:47:30.092Z,6.70
2022-12-08T22:49:57.882Z,7.17
2022-12-08T22:52:26.032Z,7.07
2022-12-08T22:54:53.902Z,9.47
2022-12-08T22:57:21.576Z,7.30
2022-12-08T22:59:49.441Z,8.10
2022-12-08T23:02:18.576Z,6.90
2022-12-08T23:04:47.284Z,7.33
2022-12-08T23:07:15.251Z,8.03
2022-12-08T23:09:43.516Z,7.10
2022-12-08T23:12:11.218Z,7.47
2022-12-08T23:14:38.815Z,6.67
2022-12-08T23:17:06.904Z,7.30
2022-12-08T23:19:37.536Z,7.23
2022-12-08T23:22:05.374Z,7.20
2022-12-08T23:24:33.023Z,7.67
2022-12-08T23:27:01.135Z,6.20
2022-12-08T23:29:28.869Z,6.60
2022-12-08T23:31:56.650Z,8.10
2022-12-08T23:34:25.815Z,6.83
2022-12-08T23:36:54.905Z,6.67
2022-12-08T23:39:24.705Z,7.20
2022-12-08T23:41:52.454Z,7.27
2022-12-08T23:44:20.722Z,6.97
2022-12-08T23:46:49.009Z,5.90
2022-12-08T23:49:16.963Z,7.97
2022-12-08T23:51:44.792Z,6.60
2022-12-08T23:54:15.433Z,5.93
2022-12-08T23:56:43.228Z,7.60
2022-12-08T23:59:11.397Z,7.30
